createdAt,value
2022-08-03T00:00:31.594Z,2.13
2022-08-03T00:02:59.321Z,2.00
2022-08-03T00:05:27.115Z,2.03
2022-08-03T00:07:55.045Z,2.17
2022-08-03T00:10:24.941Z,2.13
2022-08-03T00:12:52.840Z,2.17
2022-08-03T00:15:20.732Z,1.90
2022-08-03T00:17:52.618Z,2.03
2022-08-03T00:20:21.201Z,2.00
2022-08-03T00:22:48.892Z,2.30
2022-08-03T00:25:16.615Z,2.00
2022-08-03T00:27:45.628Z,1.90
2022-08-03T00:30:16.981Z,2.10
2022-08-03T00:32:45.587Z,2.00
2022-08-03T00:35:35.132Z,1.95
2022-08-03T00:38:00.971Z,1.90
2022-08-03T00:40:28.809Z,2.03
2022-08-03T00:42:58.895Z,2.00
2022-08-03T00:45:27.656Z,2.13
2022-08-03T00:47:56.478Z,2.17
2022-08-03T00:50:25.097Z,2.20
2022-08-03T00:52:53.185Z,2.10
2022-08-03T00:55:20.920Z,2.13
2022-08-03T00:57:48.629Z,2.10
2022-08-03T01:00:19.106Z,2.03
2022-08-03T01:02:46.772Z,1.80
2022-08-03T01:05:14.666Z,1.90
2022-08-03T01:07:52.675Z,2.25
2022-08-03T01:10:25.546Z,1.85
2022-08-03T01:12:56.468Z,1.98
2022-08-03T01:15:28.515Z,1.92
2022-08-03T01:17:58.304Z,1.98
2022-08-03T01:20:26.196Z,2.10
2022-08-03T01:23:24.008Z,1.90
2022-08-03T01:26:04.350Z,1.83
2022-08-03T01:28:40.436Z,1.75
2022-08-03T01:31:09.964Z,1.80
2022-08-03T01:33:38.226Z,1.95
2022-08-03T01:36:08.000Z,2.00
2022-08-03T01:38:36.932Z,2.00
2022-08-03T01:41:05.510Z,1.80
2022-08-03T01:44:26.609Z,2.10
2022-08-03T01:46:22.231Z,2.20
2022-08-03T01:48:49.914Z,1.90
2022-08-03T01:51:18.178Z,1.80
2022-08-03T01:53:45.855Z,2.10
2022-08-03T01:56:13.545Z,1.77
2022-08-03T01:58:41.551Z,2.15
2022-08-03T02:01:09.298Z,2.20
2022-08-03T02:03:59.917Z,2.05
2022-08-03T02:07:01.140Z,1.88
2022-08-03T02:09:16.762Z,2.00
2022-08-03T02:11:44.449Z,2.22
2022-08-03T02:14:12.112Z,1.70
2022-08-03T02:16:39.806Z,1.88
2022-08-03T02:19:08.988Z,1.80
2022-08-03T02:21:57.291Z,1.80
2022-08-03T02:24:25.243Z,1.70
2022-08-03T02:26:53.494Z,2.08
2022-08-03T02:29:40.223Z,2.10
2022-08-03T02:32:10.754Z,1.90
2022-08-03T02:34:39.783Z,1.85
2022-08-03T02:37:07.466Z,1.75
2022-08-03T02:39:35.141Z,1.80
2022-08-03T02:42:03.337Z,1.90
2022-08-03T02:44:32.917Z,1.98
2022-08-03T02:47:04.509Z,2.00
2022-08-03T02:49:34.969Z,1.88
2022-08-03T02:52:19.490Z,2.05
2022-08-03T02:54:47.249Z,1.98
2022-08-03T02:57:14.953Z,1.85
2022-08-03T02:59:42.665Z,2.00
2022-08-03T03:02:10.564Z,1.90
2022-08-03T03:04:38.307Z,1.90
2022-08-03T03:07:13.152Z,1.90
2022-08-03T03:09:43.214Z,2.00
2022-08-03T03:12:11.779Z,1.80
2022-08-03T03:14:39.567Z,1.90
2022-08-03T03:17:08.026Z,1.95
2022-08-03T03:19:35.744Z,2.00
2022-08-03T03:22:03.605Z,2.08
2022-08-03T03:24:31.320Z,1.85
2022-08-03T03:27:00.319Z,2.05
2022-08-03T03:29:28.036Z,1.80
2022-08-03T03:31:57.179Z,1.90
2022-08-03T03:34:24.948Z,1.77
2022-08-03T03:36:52.674Z,1.92
2022-08-03T03:39:20.387Z,1.90
2022-08-03T03:41:48.095Z,1.90
2022-08-03T03:44:17.145Z,1.90
2022-08-03T03:46:44.858Z,1.70
2022-08-03T03:49:12.682Z,1.80
2022-08-03T03:51:40.414Z,2.00
2022-08-03T03:54:08.143Z,2.00
2022-08-03T03:56:35.852Z,1.90
2022-08-03T03:59:03.626Z,2.20
2022-08-03T04:01:32.660Z,1.95
2022-08-03T04:04:20.960Z,1.77
2022-08-03T04:07:06.363Z,1.90
2022-08-03T04:09:51.828Z,2.13
2022-08-03T04:12:19.583Z,1.88
2022-08-03T04:14:47.294Z,2.10
2022-08-03T04:17:16.687Z,2.05
2022-08-03T04:19:46.263Z,2.10
2022-08-03T04:22:15.656Z,2.20
2022-08-03T04:24:45.866Z,2.20
2022-08-03T04:27:15.209Z,1.90
2022-08-03T04:29:50.165Z,2.00
2022-08-03T04:32:20.235Z,1.60
2022-08-03T04:34:47.982Z,2.00
2022-08-03T04:37:17.807Z,2.00
2022-08-03T04:39:45.517Z,2.20
2022-08-03T04:42:13.456Z,2.00
2022-08-03T04:44:42.826Z,1.80
2022-08-03T04:47:10.590Z,1.73
2022-08-03T04:49:39.725Z,1.95
2022-08-03T04:52:09.748Z,1.90
2022-08-03T04:54:41.271Z,1.92
2022-08-03T04:57:08.972Z,1.85
2022-08-03T04:59:39.096Z,2.05
2022-08-03T05:02:08.704Z,1.80
2022-08-03T05:04:37.955Z,1.90
2022-08-03T05:07:12.504Z,2.08
2022-08-03T05:09:52.502Z,1.98
2022-08-03T05:12:20.840Z,1.80
2022-08-03T05:14:48.527Z,2.00
2022-08-03T05:17:16.279Z,2.00
2022-08-03T05:19:43.997Z,2.10
2022-08-03T05:22:13.052Z,2.00
2022-08-03T05:24:40.727Z,1.85
2022-08-03T05:27:08.414Z,2.10
2022-08-03T05:29:36.141Z,2.03
2022-08-03T05:32:08.192Z,1.77
2022-08-03T05:34:37.306Z,2.22
2022-08-03T05:37:05.076Z,2.00
2022-08-03T05:39:34.222Z,2.03
2022-08-03T05:42:02.775Z,1.98
2022-08-03T05:44:31.633Z,1.95
2022-08-03T05:46:59.472Z,2.05
2022-08-03T05:49:27.305Z,1.88
2022-08-03T05:52:00.471Z,1.92
2022-08-03T05:54:56.452Z,2.22
2022-08-03T05:57:25.626Z,1.90
2022-08-03T05:59:53.913Z,1.85
2022-08-03T06:02:26.134Z,1.80
2022-08-03T06:04:53.895Z,1.90
2022-08-03T06:07:21.656Z,2.00
2022-08-03T06:10:35.188Z,2.08
2022-08-03T06:12:41.093Z,2.10
2022-08-03T06:15:11.397Z,1.90
2022-08-03T06:17:46.525Z,2.30
2022-08-03T06:20:14.347Z,2.15
2022-08-03T06:22:50.836Z,2.20
2022-08-03T06:25:29.246Z,2.45
2022-08-03T06:27:57.101Z,2.60
2022-08-03T06:30:25.503Z,2.60
2022-08-03T06:32:53.224Z,2.50
2022-08-03T06:35:21.014Z,2.40
2022-08-03T06:37:49.840Z,2.78
2022-08-03T06:40:21.746Z,2.67
2022-08-03T06:42:53.248Z,2.50
2022-08-03T06:45:21.423Z,2.38
2022-08-03T06:47:49.110Z,2.53
2022-08-03T06:50:18.525Z,2.50
2022-08-03T06:52:48.405Z,2.45
2022-08-03T06:55:16.372Z,2.70
2022-08-03T06:57:44.292Z,2.58
2022-08-03T07:00:14.600Z,2.80
2022-08-03T07:02:42.837Z,2.65
2022-08-03T07:05:10.884Z,2.50
2022-08-03T07:07:38.949Z,2.67
2022-08-03T07:10:07.432Z,2.95
2022-08-03T07:12:35.220Z,2.55
2022-08-03T07:15:03.621Z,2.55
2022-08-03T07:17:33.465Z,2.78
2022-08-03T07:20:01.742Z,2.72
2022-08-03T07:22:29.466Z,2.67
2022-08-03T07:24:57.465Z,2.67
2022-08-03T07:27:26.737Z,2.42
2022-08-03T07:29:54.704Z,2.78
2022-08-03T07:32:22.424Z,2.80
2022-08-03T07:34:51.457Z,2.60
2022-08-03T07:37:19.171Z,2.40
2022-08-03T07:39:46.960Z,2.53
2022-08-03T07:42:14.916Z,2.60
2022-08-03T07:44:42.780Z,2.28
2022-08-03T07:47:10.516Z,2.25
2022-08-03T07:49:51.637Z,2.30
2022-08-03T07:52:37.147Z,3.03
2022-08-03T07:55:06.280Z,2.33
2022-08-03T07:57:34.035Z,2.60
2022-08-03T08:00:02.808Z,2.63
2022-08-03T08:02:39.802Z,2.28
2022-08-03T08:05:10.691Z,2.67
2022-08-03T08:07:38.617Z,2.42
2022-08-03T08:10:07.185Z,2.30
2022-08-03T08:12:34.983Z,2.40
2022-08-03T08:15:02.739Z,2.60
2022-08-03T08:17:30.596Z,2.40
2022-08-03T08:19:58.340Z,2.40
2022-08-03T08:22:30.257Z,2.10
2022-08-03T08:24:58.951Z,2.40
2022-08-03T08:27:26.979Z,2.30
2022-08-03T08:29:58.857Z,2.35
2022-08-03T08:32:30.345Z,2.35
2022-08-03T08:34:58.047Z,2.22
2022-08-03T08:37:25.784Z,2.35
2022-08-03T08:39:55.033Z,2.05
2022-08-03T08:42:22.773Z,2.30
2022-08-03T08:44:50.801Z,2.08
2022-08-03T08:47:19.045Z,2.30
2022-08-03T08:50:08.469Z,2.20
2022-08-03T08:52:35.147Z,2.25
2022-08-03T08:55:05.663Z,2.30
2022-08-03T08:57:42.722Z,2.20
2022-08-03T09:00:14.118Z,2.30
2022-08-03T09:02:42.786Z,2.35
2022-08-03T09:05:11.577Z,2.17
2022-08-03T09:07:39.336Z,1.92
2022-08-03T09:10:12.915Z,2.40
2022-08-03T09:12:43.232Z,2.20
2022-08-03T09:15:21.646Z,2.00
2022-08-03T09:17:51.323Z,1.90
2022-08-03T09:20:20.026Z,2.05
2022-08-03T09:22:58.865Z,2.00
2022-08-03T09:25:31.748Z,2.10
2022-08-03T09:28:06.888Z,2.05
2022-08-03T09:30:35.349Z,2.00
2022-08-03T09:33:03.631Z,1.90
2022-08-03T09:38:19.872Z,1.90
2022-08-03T09:40:48.912Z,1.92
2022-08-03T09:43:17.784Z,1.95
2022-08-03T09:45:45.481Z,2.00
2022-08-03T09:48:23.716Z,2.03
2022-08-03T09:50:58.797Z,1.90
2022-08-03T09:53:58.579Z,2.00
2022-08-03T09:56:43.406Z,1.98
2022-08-03T09:59:11.602Z,1.92
2022-08-03T10:01:41.617Z,2.10
2022-08-03T10:04:13.941Z,2.08
2022-08-03T10:06:42.054Z,2.10
2022-08-03T10:09:10.895Z,1.80
2022-08-03T10:11:42.035Z,1.75
2022-08-03T10:14:18.536Z,1.73
2022-08-03T10:16:46.824Z,1.60
2022-08-03T10:19:15.172Z,1.98
2022-08-03T10:21:43.799Z,2.08
2022-08-03T10:24:11.547Z,1.60
2022-08-03T10:26:49.963Z,1.60
2022-08-03T10:29:22.257Z,1.77
2022-08-03T10:31:57.675Z,2.00
2022-08-03T10:34:27.503Z,1.55
2022-08-03T10:36:57.941Z,1.80
2022-08-03T10:39:26.797Z,1.75
2022-08-03T10:41:57.594Z,1.70
2022-08-03T10:44:25.847Z,1.65
2022-08-03T10:46:53.603Z,1.92
2022-08-03T10:49:34.050Z,1.92
2022-08-03T10:52:07.577Z,1.60
2022-08-03T10:55:09.989Z,1.70
2022-08-03T10:57:52.592Z,1.63
2022-08-03T11:00:26.963Z,1.50
2022-08-03T11:03:11.199Z,1.70
2022-08-03T11:05:43.120Z,1.60
2022-08-03T11:08:27.821Z,1.70
2022-08-03T11:10:56.664Z,1.63
2022-08-03T11:13:28.181Z,1.58
2022-08-03T11:16:00.135Z,1.70
2022-08-03T11:18:30.099Z,1.80
2022-08-03T11:20:58.514Z,1.70
2022-08-03T11:24:04.681Z,1.70
2022-08-03T11:26:31.334Z,1.70
2022-08-03T11:29:27.900Z,2.05
2022-08-03T11:31:55.697Z,1.90
2022-08-03T11:34:24.440Z,2.35
2022-08-03T11:37:27.573Z,2.47
2022-08-03T11:39:57.766Z,2.42
2022-08-03T11:42:41.526Z,2.97
2022-08-03T11:45:13.487Z,2.65
2022-08-03T11:47:50.893Z,2.83
2022-08-03T11:50:19.838Z,2.22
2022-08-03T11:52:47.512Z,2.40
2022-08-03T11:55:16.814Z,2.38
2022-08-03T11:59:01.669Z,2.50
2022-08-03T12:00:35.301Z,2.60
2022-08-03T12:03:05.151Z,2.35
2022-08-03T12:05:37.420Z,2.40
2022-08-03T12:08:06.861Z,2.50
2022-08-03T12:10:34.986Z,2.10
2022-08-03T12:13:05.752Z,3.80
2022-08-03T12:15:55.539Z,6.80
2022-08-03T12:18:23.625Z,7.78
2022-08-03T12:20:52.161Z,7.38
2022-08-03T12:23:20.112Z,5.75
2022-08-03T12:25:49.561Z,5.53
2022-08-03T12:28:30.367Z,5.60
2022-08-03T12:31:07.353Z,5.18
2022-08-03T12:33:56.106Z,5.05
2022-08-03T12:36:23.891Z,5.30
2022-08-03T12:38:55.829Z,4.35
2022-08-03T12:41:29.089Z,5.00
2022-08-03T12:43:56.925Z,4.40
2022-08-03T12:46:30.956Z,4.50
2022-08-03T12:49:06.930Z,3.85
2022-08-03T12:51:35.951Z,4.38
2022-08-03T12:54:04.068Z,4.35
2022-08-03T12:56:31.773Z,3.88
2022-08-03T12:58:59.484Z,4.18
2022-08-03T13:01:29.742Z,4.53
2022-08-03T13:03:59.965Z,4.15
2022-08-03T13:06:28.946Z,4.20
2022-08-03T13:09:03.769Z,3.63
2022-08-03T13:11:55.808Z,3.00
2022-08-03T13:14:20.220Z,3.47
2022-08-03T13:16:49.784Z,3.47
2022-08-03T13:19:17.575Z,3.33
2022-08-03T13:21:53.887Z,3.13
2022-08-03T13:24:32.712Z,2.95
2022-08-03T13:27:00.500Z,3.08
2022-08-03T13:29:28.231Z,2.17
2022-08-03T13:31:57.327Z,3.38
2022-08-03T13:34:25.086Z,2.75
2022-08-03T13:37:08.923Z,2.17
2022-08-03T13:39:57.226Z,3.83
2022-08-03T13:42:24.699Z,2.55
2022-08-03T13:44:52.529Z,2.95
2022-08-03T13:47:22.029Z,2.67
2022-08-03T13:49:54.289Z,2.75
2022-08-03T13:52:29.973Z,2.80
2022-08-03T13:54:58.470Z,2.88
2022-08-03T13:58:03.970Z,2.80
2022-08-03T14:00:26.385Z,1.98
2022-08-03T14:03:02.991Z,2.60
2022-08-03T14:05:32.567Z,4.05
2022-08-03T14:08:04.075Z,3.15
2022-08-03T14:10:33.591Z,3.83
2022-08-03T14:13:01.377Z,3.13
2022-08-03T14:15:29.365Z,3.45
2022-08-03T14:17:59.008Z,3.13
2022-08-03T14:20:37.106Z,2.67
2022-08-03T14:23:07.774Z,2.92
2022-08-03T14:25:43.194Z,3.03
2022-08-03T14:28:18.522Z,3.65
2022-08-03T14:30:46.480Z,3.70
2022-08-03T14:33:15.574Z,3.50
2022-08-03T14:35:43.505Z,4.60
2022-08-03T14:38:11.205Z,4.65
2022-08-03T14:40:38.908Z,5.68
2022-08-03T14:43:06.760Z,4.00
2022-08-03T14:45:34.845Z,4.43
2022-08-03T14:50:29.740Z,3.35
2022-08-03T14:50:52.553Z,3.65
2022-08-03T14:53:20.509Z,4.95
2022-08-03T14:55:50.648Z,3.70
2022-08-03T14:58:27.196Z,5.28
2022-08-03T15:00:55.568Z,4.40
2022-08-03T15:03:24.612Z,3.17
2022-08-03T15:05:54.381Z,6.10
2022-08-03T15:08:22.458Z,3.55
2022-08-03T15:10:50.457Z,43.25
2022-08-03T15:13:18.443Z,7.07
2022-08-03T15:15:46.260Z,5.00
2022-08-03T15:18:13.932Z,6.28
2022-08-03T15:20:46.665Z,4.20
2022-08-03T15:23:16.370Z,3.92
2022-08-03T15:26:31.914Z,5.78
2022-08-03T15:28:32.012Z,4.18
2022-08-03T15:30:59.761Z,4.40
2022-08-03T15:33:27.468Z,3.85
2022-08-03T15:35:56.131Z,3.50
2022-08-03T15:38:26.171Z,3.92
2022-08-03T15:40:54.358Z,4.10
2022-08-03T15:43:22.117Z,5.35
2022-08-03T15:46:12.352Z,5.18
2022-08-03T15:48:37.697Z,5.32
2022-08-03T15:51:05.448Z,4.65
2022-08-03T15:53:34.558Z,4.15
2022-08-03T15:56:07.994Z,4.78
2022-08-03T15:59:03.988Z,4.60
2022-08-03T16:01:26.182Z,4.30
2022-08-03T16:03:53.915Z,4.45
2022-08-03T16:06:35.509Z,3.72
2022-08-03T16:09:24.026Z,4.13
2022-08-03T16:11:53.989Z,3.83
2022-08-03T16:14:34.391Z,3.22
2022-08-03T16:17:04.027Z,3.58
2022-08-03T16:19:31.823Z,3.50
2022-08-03T16:21:59.885Z,3.58
2022-08-03T16:24:30.183Z,2.70
2022-08-03T16:26:58.090Z,3.55
2022-08-03T16:29:28.703Z,2.60
2022-08-03T16:31:56.392Z,2.67
2022-08-03T16:34:24.136Z,2.55
2022-08-03T16:36:52.424Z,2.78
2022-08-03T16:39:20.349Z,2.80
2022-08-03T16:41:53.872Z,2.42
2022-08-03T16:44:29.491Z,2.55
2022-08-03T16:46:57.203Z,2.75
2022-08-03T16:49:56.101Z,2.30
2022-08-03T16:52:12.997Z,3.10
2022-08-03T16:54:41.021Z,2.47
2022-08-03T16:57:10.030Z,2.28
2022-08-03T16:59:39.656Z,2.33
2022-08-03T17:02:10.567Z,2.60
2022-08-03T17:04:40.119Z,2.28
2022-08-03T17:07:08.820Z,2.30
2022-08-03T17:09:38.368Z,2.55
2022-08-03T17:12:07.436Z,2.10
2022-08-03T17:14:40.404Z,2.10
2022-08-03T17:17:16.145Z,2.15
2022-08-03T17:19:47.558Z,2.20
2022-08-03T17:22:22.380Z,2.25
2022-08-03T17:24:51.882Z,1.83
2022-08-03T17:28:49.246Z,2.47
2022-08-03T17:30:13.419Z,1.95
2022-08-03T17:32:52.694Z,2.00
2022-08-03T17:35:36.521Z,2.40
2022-08-03T17:38:10.302Z,2.28
2022-08-03T17:40:39.876Z,2.58
2022-08-03T17:44:13.112Z,2.45
2022-08-03T17:46:07.200Z,2.22
2022-08-03T17:48:41.297Z,2.10
2022-08-03T17:54:18.548Z,2.17
2022-08-03T17:56:50.031Z,2.50
2022-08-03T18:02:40.644Z,2.10
2022-08-03T18:08:06.816Z,2.10
2022-08-03T18:10:49.692Z,1.92
2022-08-03T18:13:22.629Z,2.22
2022-08-03T18:15:54.108Z,1.90
2022-08-03T18:18:32.480Z,2.03
2022-08-03T18:21:02.211Z,2.20
2022-08-03T18:23:37.161Z,2.20
2022-08-03T18:26:06.702Z,1.90
2022-08-03T18:28:35.295Z,2.15
2022-08-03T18:31:06.123Z,2.13
2022-08-03T18:34:19.529Z,1.92
2022-08-03T18:36:30.062Z,2.40
2022-08-03T18:38:59.527Z,1.80
2022-08-03T18:44:37.315Z,2.05
2022-08-03T18:47:16.668Z,2.13
2022-08-03T18:49:51.415Z,2.05
2022-08-03T18:52:27.706Z,2.13
2022-08-03T18:55:12.529Z,2.25
2022-08-03T18:57:50.524Z,2.40
2022-08-03T19:00:24.487Z,2.10
2022-08-03T19:03:12.132Z,2.05
2022-08-03T19:06:02.404Z,1.88
2022-08-03T19:08:38.003Z,1.88
2022-08-03T19:11:07.479Z,2.05
2022-08-03T19:13:40.319Z,1.80
2022-08-03T19:16:13.543Z,1.83
2022-08-03T19:18:46.793Z,2.03
2022-08-03T19:21:18.286Z,1.70
2022-08-03T19:23:46.408Z,2.15
2022-08-03T19:26:30.025Z,2.33
2022-08-03T19:28:59.275Z,2.00
2022-08-03T19:31:30.736Z,2.00
2022-08-03T19:33:59.799Z,2.35
2022-08-03T19:36:29.851Z,2.00
2022-08-03T19:38:57.830Z,1.98
2022-08-03T19:41:26.213Z,2.15
2022-08-03T19:44:00.250Z,1.90
2022-08-03T19:46:32.213Z,2.00
2022-08-03T19:49:01.810Z,1.70
2022-08-03T19:52:00.839Z,2.17
2022-08-03T19:54:29.710Z,1.88
2022-08-03T19:57:00.113Z,2.15
2022-08-03T19:59:29.645Z,1.90
2022-08-03T20:01:57.334Z,2.20
2022-08-03T20:04:25.066Z,2.05
2022-08-03T20:06:57.045Z,2.10
2022-08-03T20:09:25.007Z,1.73
2022-08-03T20:11:58.862Z,2.25
2022-08-03T20:14:26.864Z,2.05
2022-08-03T20:16:54.694Z,2.25
2022-08-03T20:19:24.038Z,2.13
2022-08-03T20:22:01.604Z,2.20
2022-08-03T20:24:34.186Z,1.90
2022-08-03T20:27:03.716Z,2.13
2022-08-03T20:30:05.212Z,2.40
2022-08-03T20:32:25.444Z,2.38
2022-08-03T20:34:53.422Z,2.25
2022-08-03T20:37:22.669Z,2.15
2022-08-03T20:39:50.465Z,2.20
2022-08-03T20:42:21.777Z,2.20
2022-08-03T20:45:04.567Z,2.30
2022-08-03T20:47:35.666Z,2.47
2022-08-03T20:50:03.767Z,2.65
2022-08-03T20:52:34.004Z,2.30
2022-08-03T20:55:02.099Z,2.03
2022-08-03T21:00:19.409Z,2.25
2022-08-03T21:02:49.855Z,2.20
2022-08-03T21:05:17.588Z,2.20
2022-08-03T21:08:05.519Z,2.47
2022-08-03T21:10:35.872Z,2.10
2022-08-03T21:12:55.449Z,2.28
2022-08-03T21:12:56.493Z,2.15
2022-08-03T21:13:05.596Z,2.10
2022-08-03T21:13:05.638Z,2.30
2022-08-03T21:13:07.827Z,2.08
2022-08-03T21:13:16.766Z,2.20
2022-08-03T21:16:03.248Z,2.22
2022-08-03T21:18:37.257Z,2.20
2022-08-03T21:21:06.300Z,2.38
2022-08-03T21:23:47.601Z,2.00
2022-08-03T21:26:16.619Z,2.67
2022-08-03T21:28:44.439Z,2.53
2022-08-03T21:31:12.205Z,2.53
2022-08-03T21:33:41.223Z,3.40
2022-08-03T21:36:14.929Z,3.50
2022-08-03T21:38:44.678Z,3.70
2022-08-03T21:41:23.829Z,4.22
2022-08-03T21:43:51.605Z,3.65
2022-08-03T21:46:20.030Z,4.60
2022-08-03T21:48:49.136Z,3.65
2022-08-03T21:51:19.237Z,5.57
2022-08-03T21:54:04.005Z,5.10
2022-08-03T21:56:35.988Z,4.60
2022-08-03T21:59:05.479Z,4.47
2022-08-03T22:01:35.625Z,4.88
2022-08-03T22:04:04.487Z,5.35
2022-08-03T22:06:34.645Z,5.10
2022-08-03T22:09:04.491Z,5.03
2022-08-03T22:11:32.278Z,5.47
2022-08-03T22:14:01.309Z,5.65
2022-08-03T22:16:29.069Z,5.28
2022-08-03T22:18:56.791Z,6.25
2022-08-03T22:21:35.712Z,6.05
2022-08-03T22:24:05.716Z,6.47
2022-08-03T22:26:35.479Z,6.20
2022-08-03T22:29:05.797Z,6.18
2022-08-03T22:31:58.221Z,5.68
2022-08-03T22:34:26.329Z,6.13
2022-08-03T22:36:56.539Z,6.53
2022-08-03T22:39:27.812Z,6.22
2022-08-03T22:41:55.625Z,7.70
2022-08-03T22:44:23.351Z,7.68
2022-08-03T22:46:51.133Z,7.50
2022-08-03T22:49:18.879Z,8.02
2022-08-03T22:51:46.654Z,8.40
2022-08-03T22:54:14.362Z,8.52
2022-08-03T22:56:43.427Z,8.43
2022-08-03T22:59:38.791Z,9.05
2022-08-03T23:02:01.460Z,9.15
2022-08-03T23:04:42.655Z,10.60
2022-08-03T23:07:10.360Z,10.32
2022-08-03T23:09:38.068Z,10.13
2022-08-03T23:12:07.627Z,11.20
2022-08-03T23:14:37.797Z,11.70
2022-08-03T23:17:06.138Z,13.23
2022-08-03T23:19:34.310Z,13.50
2022-08-03T23:22:29.509Z,14.32
2022-08-03T23:24:57.264Z,14.80
2022-08-03T23:27:26.671Z,15.60
2022-08-03T23:29:54.414Z,17.02
2022-08-03T23:32:22.151Z,15.65
2022-08-03T23:35:07.567Z,17.35
2022-08-03T23:38:04.045Z,18.55
2022-08-03T23:40:24.328Z,19.17
2022-08-03T23:42:53.452Z,21.05
2022-08-03T23:45:21.360Z,21.15
2022-08-03T23:47:50.212Z,19.42
2022-08-03T23:50:18.031Z,22.23
2022-08-03T23:52:52.762Z,21.85
2022-08-03T23:55:26.371Z,23.50
2022-08-03T23:58:02.639Z,24.73
